createdAt,value
2022-09-23T00:04:08.286Z,93334.30
2022-09-23T00:12:31.477Z,93288.95
2022-09-23T00:20:54.506Z,93262.20
2022-09-23T00:29:19.055Z,93226.70
2022-09-23T00:37:42.040Z,93209.02
2022-09-23T00:46:08.560Z,93209.98
2022-09-23T00:54:32.209Z,93238.59
2022-09-23T01:02:56.097Z,93264.98
2022-09-23T01:11:26.629Z,93277.40
2022-09-23T01:19:50.040Z,93318.47
2022-09-23T01:28:41.024Z,93338.32
2022-09-23T01:37:13.464Z,93356.56
2022-09-23T01:45:54.611Z,93371.64
2022-09-23T01:54:29.437Z,93354.48
2022-09-23T02:03:05.376Z,93315.65
2022-09-23T02:11:36.563Z,93245.30
2022-09-23T02:20:06.609Z,93217.52
2022-09-23T02:28:42.635Z,93180.77
2022-09-23T02:37:09.512Z,93084.40
2022-09-23T02:45:34.502Z,92980.05
2022-09-23T02:53:59.066Z,92901.00
2022-09-23T03:02:40.052Z,92872.52
2022-09-23T03:11:14.422Z,92844.30
2022-09-23T03:19:51.289Z,92843.55
2022-09-23T03:28:17.555Z,92811.23
2022-09-23T03:37:01.104Z,92802.65
2022-09-23T03:45:32.111Z,92829.75
2022-09-23T03:53:55.171Z,92838.59
2022-09-23T04:02:21.495Z,92837.69
2022-09-23T04:10:46.399Z,92846.38
2022-09-23T04:19:12.844Z,92839.68
2022-09-23T04:27:37.965Z,92869.83
2022-09-23T04:36:02.505Z,92946.42
2022-09-23T04:44:27.655Z,92987.39
2022-09-23T04:52:52.634Z,93029.00
2022-09-23T05:01:20.117Z,93050.36
2022-09-23T05:09:43.428Z,93035.85
2022-09-23T05:18:06.383Z,93044.59
2022-09-23T05:26:31.720Z,93087.31
2022-09-23T05:34:57.061Z,93148.42
2022-09-23T05:43:19.999Z,93179.98
2022-09-23T05:51:43.059Z,93171.02
2022-09-23T06:00:07.982Z,93230.89
2022-09-23T06:08:35.062Z,93364.55
2022-09-23T06:16:57.963Z,93434.70
2022-09-23T06:25:23.173Z,93470.75
2022-09-23T06:33:47.294Z,93520.77
2022-09-23T06:42:10.407Z,93618.48
2022-09-23T06:50:35.236Z,93815.51
2022-09-23T06:58:58.357Z,94005.31
2022-09-23T07:07:21.195Z,94079.42
2022-09-23T07:15:53.325Z,94180.16
2022-09-23T07:24:17.189Z,94312.95
2022-09-23T07:32:48.561Z,94436.24
2022-09-23T07:41:17.368Z,94624.23
2022-09-23T07:49:42.403Z,94814.00
2022-09-23T07:58:06.088Z,95002.09
2022-09-23T08:06:29.211Z,95132.46
2022-09-23T08:14:53.543Z,95310.36
2022-09-23T08:23:17.452Z,95519.89
2022-09-23T08:31:41.201Z,95700.76
2022-09-23T08:40:05.315Z,95749.58
2022-09-23T08:48:48.259Z,95740.90
2022-09-23T08:57:27.272Z,95733.66
2022-09-23T09:05:55.291Z,95656.70
2022-09-23T09:14:43.360Z,95650.66
2022-09-23T09:23:20.296Z,95672.55
2022-09-23T09:31:48.950Z,95689.57
2022-09-23T09:40:14.264Z,95754.89
2022-09-23T09:48:54.386Z,95842.85
2022-09-23T09:57:41.525Z,95933.55
2022-09-23T10:06:17.884Z,96035.33
2022-09-23T10:14:42.474Z,96115.27
2022-09-23T10:23:19.424Z,96186.25
2022-09-23T10:31:43.572Z,96214.66
2022-09-23T10:40:44.788Z,96268.10
2022-09-23T10:49:33.373Z,96257.81
2022-09-23T10:58:33.747Z,96217.71
2022-09-23T11:07:38.352Z,96207.84
2022-09-23T11:16:21.788Z,96256.27
2022-09-23T11:25:09.246Z,96200.32
2022-09-23T11:33:44.792Z,96207.23
2022-09-23T11:42:19.849Z,96202.63
2022-09-23T11:51:00.555Z,96172.13
2022-09-23T11:59:41.178Z,96236.27
2022-09-23T12:08:25.319Z,96278.74
2022-09-23T12:17:25.125Z,96343.58
2022-09-23T12:26:03.218Z,96396.65
2022-09-23T12:34:40.277Z,96381.44
2022-09-23T12:43:03.399Z,96376.69
2022-09-23T12:51:28.173Z,96429.33
2022-09-23T13:00:13.441Z,96369.98
2022-09-23T13:08:43.824Z,96275.25
2022-09-23T13:17:08.231Z,96106.38
2022-09-23T13:25:35.496Z,95934.31
2022-09-23T13:34:06.835Z,95901.36
2022-09-23T13:42:30.978Z,95981.45
2022-09-23T13:50:54.869Z,96083.34
2022-09-23T13:59:27.563Z,96128.50
2022-09-23T14:07:58.759Z,96138.12
2022-09-23T14:16:27.505Z,96151.03
2022-09-23T14:24:51.701Z,96032.75
2022-09-23T14:33:26.883Z,95931.80
2022-09-23T14:41:50.262Z,95925.91
2022-09-23T14:50:37.608Z,95893.33
2022-09-23T14:59:01.000Z,95884.39
2022-09-23T15:07:24.082Z,95894.96
2022-09-23T15:15:48.622Z,95840.56
2022-09-23T15:24:45.573Z,95747.83
2022-09-23T15:33:16.305Z,95615.46
2022-09-23T15:41:43.661Z,95473.38
2022-09-23T15:50:07.467Z,95331.21
2022-09-23T15:59:08.881Z,95202.16
2022-09-23T16:09:01.686Z,95076.39
2022-09-23T17:01:26.000Z,94518.48
2022-09-23T17:09:54.116Z,94357.83
2022-09-23T17:25:50.769Z,94057.33
2022-09-23T17:46:27.813Z,93753.39
2022-09-23T18:00:00.607Z,93597.25
2022-09-23T18:08:25.425Z,93518.65
2022-09-23T18:16:51.526Z,93469.17
2022-09-23T18:25:37.663Z,93402.46
2022-09-23T18:33:58.920Z,93311.18
2022-09-23T18:42:24.192Z,93204.75
2022-09-23T18:50:51.841Z,93150.65
2022-09-23T18:59:21.109Z,93093.48
2022-09-23T19:07:44.127Z,93045.33
2022-09-23T19:16:16.943Z,93010.20
2022-09-23T19:24:39.998Z,92933.03
2022-09-23T19:33:03.374Z,92851.33
2022-09-23T19:41:33.478Z,92809.25
2022-09-23T19:49:56.641Z,92751.48
2022-09-23T19:58:19.952Z,92667.53
2022-09-23T20:06:43.815Z,92624.48
2022-09-23T20:15:07.186Z,92638.17
2022-09-23T20:23:30.226Z,92676.27
2022-09-23T20:31:53.273Z,92754.40
2022-09-23T20:40:17.270Z,92812.89
2022-09-23T20:48:41.444Z,92866.95
2022-09-23T20:57:06.868Z,92899.27
2022-09-23T21:05:31.020Z,92922.55
2022-09-23T21:13:55.178Z,92926.81
2022-09-23T21:22:19.202Z,92926.89
2022-09-23T21:30:49.734Z,92895.66
2022-09-23T21:39:15.634Z,92877.41
2022-09-23T21:47:40.076Z,92841.36
2022-09-23T21:56:21.029Z,92824.77
2022-09-23T22:04:47.928Z,92788.58
2022-09-23T22:13:13.024Z,92728.76
2022-09-23T22:21:39.680Z,92670.42
2022-09-23T22:30:21.383Z,92644.52
2022-09-23T22:38:44.671Z,92631.15
2022-09-23T22:47:09.567Z,92654.96
2022-09-23T22:55:32.767Z,92687.42
2022-09-23T23:04:03.352Z,92739.22
2022-09-23T23:12:26.487Z,92807.16
2022-09-23T23:20:51.294Z,92817.79
2022-09-23T23:29:17.544Z,92772.52
2022-09-23T23:37:41.506Z,92715.40
2022-09-23T23:46:07.722Z,92666.20
2022-09-23T23:54:33.046Z,92605.25
